sensor_id;sensor_type;location;lat;lon;timestamp;P1;durP1;ratioP1;P2;durP2;ratioP2
67065;SDS011;53978;43.846;25.952;2023-08-06T00:01:12;5.00;;;4.50;;
67065;SDS011;53978;43.846;25.952;2023-08-06T00:03:37;6.82;;;4.75;;
67065;SDS011;53978;43.846;25.952;2023-08-06T00:06:04;6.65;;;4.63;;
67065;SDS011;53978;43.846;25.952;2023-08-06T00:08:30;7.72;;;5.05;;
67065;SDS011;53978;43.846;25.952;2023-08-06T00:10:55;7.75;;;4.60;;
67065;SDS011;53978;43.846;25.952;2023-08-06T00:13:20;5.85;;;4.70;;
67065;SDS011;53978;43.846;25.952;2023-08-06T00:15:46;9.60;;;5.00;;
67065;SDS011;53978;43.846;25.952;2023-08-06T00:18:11;7.43;;;4.88;;
67065;SDS011;53978;43.846;25.952;2023-08-06T00:20:40;7.07;;;5.00;;
67065;SDS011;53978;43.846;25.952;2023-08-06T00:23:06;6.82;;;5.15;;
67065;SDS011;53978;43.846;25.952;2023-08-06T00:25:32;7.55;;;5.30;;
67065;SDS011;53978;43.846;25.952;2023-08-06T00:27:58;6.32;;;4.78;;
67065;SDS011;53978;43.846;25.952;2023-08-06T00:30:23;5.82;;;4.85;;
67065;SDS011;53978;43.846;25.952;2023-08-06T00:32:48;6.80;;;5.18;;
67065;SDS011;53978;43.846;25.952;2023-08-06T00:35:14;6.70;;;4.85;;
67065;SDS011;53978;43.846;25.952;2023-08-06T00:37:39;13.50;;;4.82;;
67065;SDS011;53978;43.846;25.952;2023-08-06T00:40:06;12.15;;;5.18;;
67065;SDS011;53978;43.846;25.952;2023-08-06T00:42:31;6.60;;;5.15;;
67065;SDS011;53978;43.846;25.952;2023-08-06T00:44:57;6.20;;;4.85;;
67065;SDS011;53978;43.846;25.952;2023-08-06T00:47:22;6.68;;;5.07;;
67065;SDS011;53978;43.846;25.952;2023-08-06T00:49:48;6.57;;;5.32;;
67065;SDS011;53978;43.846;25.952;2023-08-06T00:52:14;6.15;;;5.13;;
67065;SDS011;53978;43.846;25.952;2023-08-06T00:54:39;7.95;;;5.10;;
67065;SDS011;53978;43.846;25.952;2023-08-06T00:57:05;7.25;;;5.50;;
67065;SDS011;53978;43.846;25.952;2023-08-06T00:59:32;6.32;;;5.53;;
67065;SDS011;53978;43.846;25.952;2023-08-06T01:01:58;6.00;;;5.43;;
67065;SDS011;53978;43.846;25.952;2023-08-06T01:04:23;10.95;;;5.38;;
67065;SDS011;53978;43.846;25.952;2023-08-06T01:06:52;7.55;;;5.57;;
67065;SDS011;53978;43.846;25.952;2023-08-06T01:09:35;14.85;;;6.00;;
67065;SDS011;53978;43.846;25.952;2023-08-06T01:14:45;7.00;;;5.25;;
67065;SDS011;53978;43.846;25.952;2023-08-06T01:17:16;11.30;;;5.50;;
67065;SDS011;53978;43.846;25.952;2023-08-06T01:19:41;14.60;;;6.03;;
67065;SDS011;53978;43.846;25.952;2023-08-06T01:22:07;6.93;;;5.38;;
67065;SDS011;53978;43.846;25.952;2023-08-06T01:24:32;7.10;;;5.22;;
67065;SDS011;53978;43.846;25.952;2023-08-06T01:27:00;5.95;;;5.00;;
67065;SDS011;53978;43.846;25.952;2023-08-06T01:29:41;6.60;;;5.15;;
67065;SDS011;53978;43.846;25.952;2023-08-06T01:32:08;5.75;;;5.00;;
67065;SDS011;53978;43.846;25.952;2023-08-06T01:34:35;7.72;;;5.00;;
67065;SDS011;53978;43.846;25.952;2023-08-06T01:37:04;5.97;;;5.13;;
67065;SDS011;53978;43.846;25.952;2023-08-06T01:39:31;7.15;;;5.07;;
67065;SDS011;53978;43.846;25.952;2023-08-06T01:41:58;5.43;;;4.90;;
67065;SDS011;53978;43.846;25.952;2023-08-06T01:44:23;6.82;;;5.00;;
67065;SDS011;53978;43.846;25.952;2023-08-06T01:46:49;7.97;;;5.22;;
67065;SDS011;53978;43.846;25.952;2023-08-06T01:49:14;5.90;;;4.68;;
67065;SDS011;53978;43.846;25.952;2023-08-06T01:51:39;5.82;;;4.88;;
67065;SDS011;53978;43.846;25.952;2023-08-06T01:54:05;6.18;;;4.85;;
67065;SDS011;53978;43.846;25.952;2023-08-06T01:56:30;5.93;;;4.70;;
67065;SDS011;53978;43.846;25.952;2023-08-06T01:58:55;6.80;;;4.43;;
67065;SDS011;53978;43.846;25.952;2023-08-06T02:01:21;6.13;;;4.20;;
67065;SDS011;53978;43.846;25.952;2023-08-06T02:03:46;6.07;;;4.00;;
67065;SDS011;53978;43.846;25.952;2023-08-06T02:06:12;4.78;;;4.15;;
67065;SDS011;53978;43.846;25.952;2023-08-06T02:08:37;4.93;;;4.22;;
67065;SDS011;53978;43.846;25.952;2023-08-06T02:11:03;5.53;;;4.22;;
67065;SDS011;53978;43.846;25.952;2023-08-06T02:13:29;7.75;;;4.00;;
67065;SDS011;53978;43.846;25.952;2023-08-06T02:15:54;4.05;;;3.65;;
67065;SDS011;53978;43.846;25.952;2023-08-06T02:18:19;6.05;;;3.45;;
67065;SDS011;53978;43.846;25.952;2023-08-06T02:20:54;4.70;;;3.03;;
67065;SDS011;53978;43.846;25.952;2023-08-06T02:23:23;5.63;;;2.95;;
67065;SDS011;53978;43.846;25.952;2023-08-06T02:25:48;5.43;;;2.90;;
67065;SDS011;53978;43.846;25.952;2023-08-06T02:28:13;3.78;;;2.50;;
67065;SDS011;53978;43.846;25.952;2023-08-06T02:30:39;2.30;;;2.10;;
67065;SDS011;53978;43.846;25.952;2023-08-06T02:33:04;5.38;;;2.50;;
67065;SDS011;53978;43.846;25.952;2023-08-06T02:35:29;3.55;;;2.20;;
67065;SDS011;53978;43.846;25.952;2023-08-06T02:37:55;3.88;;;2.42;;
67065;SDS011;53978;43.846;25.952;2023-08-06T02:40:20;3.42;;;2.17;;
67065;SDS011;53978;43.846;25.952;2023-08-06T02:42:46;7.88;;;2.50;;
67065;SDS011;53978;43.846;25.952;2023-08-06T02:45:11;5.07;;;2.28;;
67065;SDS011;53978;43.846;25.952;2023-08-06T02:47:36;2.28;;;2.00;;
67065;SDS011;53978;43.846;25.952;2023-08-06T02:50:02;4.93;;;1.85;;
67065;SDS011;53978;43.846;25.952;2023-08-06T02:52:27;5.57;;;1.70;;
67065;SDS011;53978;43.846;25.952;2023-08-06T02:54:53;4.13;;;1.70;;
67065;SDS011;53978;43.846;25.952;2023-08-06T02:57:18;3.22;;;1.75;;
67065;SDS011;53978;43.846;25.952;2023-08-06T02:59:43;4.80;;;1.55;;
67065;SDS011;53978;43.846;25.952;2023-08-06T03:02:09;1.80;;;1.60;;
67065;SDS011;53978;43.846;25.952;2023-08-06T03:04:34;1.75;;;1.58;;
67065;SDS011;53978;43.846;25.952;2023-08-06T03:07:00;2.40;;;1.65;;
67065;SDS011;53978;43.846;25.952;2023-08-06T03:09:25;2.47;;;1.70;;
67065;SDS011;53978;43.846;25.952;2023-08-06T03:11:50;3.45;;;1.70;;
67065;SDS011;53978;43.846;25.952;2023-08-06T03:14:16;1.65;;;1.38;;
67065;SDS011;53978;43.846;25.952;2023-08-06T03:16:41;4.10;;;1.50;;
67065;SDS011;53978;43.846;25.952;2023-08-06T03:19:09;2.08;;;1.45;;
67065;SDS011;53978;43.846;25.952;2023-08-06T03:21:34;2.72;;;1.45;;
67065;SDS011;53978;43.846;25.952;2023-08-06T03:24:00;3.22;;;1.30;;
67065;SDS011;53978;43.846;25.952;2023-08-06T03:26:25;3.83;;;1.60;;
67065;SDS011;53978;43.846;25.952;2023-08-06T03:28:50;8.27;;;1.42;;
67065;SDS011;53978;43.846;25.952;2023-08-06T03:31:16;2.35;;;1.20;;
67065;SDS011;53978;43.846;25.952;2023-08-06T03:33:41;4.28;;;1.38;;
67065;SDS011;53978;43.846;25.952;2023-08-06T03:36:07;1.75;;;1.52;;
67065;SDS011;53978;43.846;25.952;2023-08-06T03:38:32;2.17;;;1.73;;
67065;SDS011;53978;43.846;25.952;2023-08-06T03:40:57;3.72;;;1.60;;
67065;SDS011;53978;43.846;25.952;2023-08-06T03:43:23;2.30;;;1.38;;
67065;SDS011;53978;43.846;25.952;2023-08-06T03:45:48;2.90;;;1.40;;
67065;SDS011;53978;43.846;25.952;2023-08-06T03:48:14;2.10;;;1.25;;
67065;SDS011;53978;43.846;25.952;2023-08-06T03:50:39;4.35;;;1.52;;
67065;SDS011;53978;43.846;25.952;2023-08-06T03:53:04;1.40;;;1.30;;
67065;SDS011;53978;43.846;25.952;2023-08-06T03:55:30;1.45;;;1.33;;
67065;SDS011;53978;43.846;25.952;2023-08-06T03:57:55;4.90;;;1.30;;
67065;SDS011;53978;43.846;25.952;2023-08-06T04:00:20;1.75;;;1.50;;
67065;SDS011;53978;43.846;25.952;2023-08-06T04:02:46;2.45;;;1.60;;
67065;SDS011;53978;43.846;25.952;2023-08-06T04:05:11;4.25;;;1.30;;
67065;SDS011;53978;43.846;25.952;2023-08-06T04:07:37;1.65;;;1.45;;
67065;SDS011;53978;43.846;25.952;2023-08-06T04:10:03;3.72;;;1.58;;
67065;SDS011;53978;43.846;25.952;2023-08-06T04:12:29;3.28;;;1.30;;
67065;SDS011;53978;43.846;25.952;2023-08-06T04:14:55;2.67;;;1.52;;
67065;SDS011;53978;43.846;25.952;2023-08-06T04:17:22;1.48;;;1.30;;
67065;SDS011;53978;43.846;25.952;2023-08-06T04:19:48;3.25;;;1.30;;
67065;SDS011;53978;43.846;25.952;2023-08-06T04:22:15;3.80;;;1.30;;
67065;SDS011;53978;43.846;25.952;2023-08-06T04:24:41;1.30;;;1.20;;
67065;SDS011;53978;43.846;25.952;2023-08-06T04:27:07;3.65;;;1.92;;
67065;SDS011;53978;43.846;25.952;2023-08-06T04:29:33;3.17;;;1.67;;
67065;SDS011;53978;43.846;25.952;2023-08-06T04:31:58;4.53;;;1.40;;
67065;SDS011;53978;43.846;25.952;2023-08-06T04:34:24;2.60;;;1.33;;
67065;SDS011;53978;43.846;25.952;2023-08-06T04:36:49;1.45;;;1.20;;
67065;SDS011;53978;43.846;25.952;2023-08-06T04:39:14;3.22;;;1.40;;
67065;SDS011;53978;43.846;25.952;2023-08-06T04:41:40;1.30;;;1.20;;
67065;SDS011;53978;43.846;25.952;2023-08-06T04:44:05;1.80;;;1.50;;
67065;SDS011;53978;43.846;25.952;2023-08-06T04:46:30;1.77;;;1.08;;
67065;SDS011;53978;43.846;25.952;2023-08-06T04:48:56;2.97;;;1.50;;
67065;SDS011;53978;43.846;25.952;2023-08-06T04:51:21;3.70;;;2.20;;
67065;SDS011;53978;43.846;25.952;2023-08-06T04:53:47;1.45;;;1.25;;
67065;SDS011;53978;43.846;25.952;2023-08-06T04:56:12;5.38;;;1.30;;
67065;SDS011;53978;43.846;25.952;2023-08-06T04:58:37;1.40;;;1.20;;
67065;SDS011;53978;43.846;25.952;2023-08-06T05:01:03;1.35;;;1.25;;
67065;SDS011;53978;43.846;25.952;2023-08-06T05:03:28;6.47;;;1.20;;
67065;SDS011;53978;43.846;25.952;2023-08-06T05:05:54;2.05;;;1.20;;
67065;SDS011;53978;43.846;25.952;2023-08-06T05:08:19;17.13;;;2.22;;
67065;SDS011;53978;43.846;25.952;2023-08-06T05:10:45;1.45;;;1.17;;
67065;SDS011;53978;43.846;25.952;2023-08-06T05:13:10;2.28;;;1.70;;
67065;SDS011;53978;43.846;25.952;2023-08-06T05:15:36;3.78;;;1.50;;
67065;SDS011;53978;43.846;25.952;2023-08-06T05:18:02;1.52;;;1.10;;
67065;SDS011;53978;43.846;25.952;2023-08-06T05:20:27;1.40;;;1.30;;
67065;SDS011;53978;43.846;25.952;2023-08-06T05:22:52;1.27;;;1.17;;
67065;SDS011;53978;43.846;25.952;2023-08-06T05:25:18;1.45;;;1.30;;
67065;SDS011;53978;43.846;25.952;2023-08-06T05:27:43;1.50;;;1.20;;
67065;SDS011;53978;43.846;25.952;2023-08-06T05:30:09;1.35;;;1.25;;
67065;SDS011;53978;43.846;25.952;2023-08-06T05:32:35;1.40;;;1.15;;
67065;SDS011;53978;43.846;25.952;2023-08-06T05:35:00;2.95;;;1.30;;
67065;SDS011;53978;43.846;25.952;2023-08-06T05:37:26;1.23;;;1.13;;
67065;SDS011;53978;43.846;25.952;2023-08-06T05:39:51;3.67;;;1.02;;
67065;SDS011;53978;43.846;25.952;2023-08-06T05:42:17;1.20;;;1.10;;
67065;SDS011;53978;43.846;25.952;2023-08-06T05:44:42;1.75;;;1.30;;
67065;SDS011;53978;43.846;25.952;2023-08-06T05:47:08;2.92;;;1.30;;
67065;SDS011;53978;43.846;25.952;2023-08-06T05:49:33;6.82;;;1.30;;
67065;SDS011;53978;43.846;25.952;2023-08-06T05:51:58;2.42;;;1.40;;
67065;SDS011;53978;43.846;25.952;2023-08-06T05:54:24;2.70;;;1.38;;
67065;SDS011;53978;43.846;25.952;2023-08-06T05:56:50;1.40;;;1.30;;
67065;SDS011;53978;43.846;25.952;2023-08-06T05:59:15;1.42;;;1.33;;
67065;SDS011;53978;43.846;25.952;2023-08-06T06:01:40;1.40;;;1.13;;
67065;SDS011;53978;43.846;25.952;2023-08-06T06:04:06;4.07;;;1.50;;
67065;SDS011;53978;43.846;25.952;2023-08-06T06:06:31;1.30;;;1.20;;
67065;SDS011;53978;43.846;25.952;2023-08-06T06:08:57;4.13;;;2.03;;
67065;SDS011;53978;43.846;25.952;2023-08-06T06:11:22;4.63;;;1.50;;
67065;SDS011;53978;43.846;25.952;2023-08-06T06:13:50;3.95;;;1.42;;
67065;SDS011;53978;43.846;25.952;2023-08-06T06:16:16;4.85;;;1.10;;
67065;SDS011;53978;43.846;25.952;2023-08-06T06:18:41;1.00;;;1.00;;
67065;SDS011;53978;43.846;25.952;2023-08-06T06:21:06;0.77;;;0.77;;
67065;SDS011;53978;43.846;25.952;2023-08-06T06:23:32;4.43;;;0.93;;
67065;SDS011;53978;43.846;25.952;2023-08-06T06:26:00;3.38;;;1.02;;
67065;SDS011;53978;43.846;25.952;2023-08-06T06:28:25;3.45;;;0.90;;
67065;SDS011;53978;43.846;25.952;2023-08-06T06:30:51;0.85;;;0.85;;
67065;SDS011;53978;43.846;25.952;2023-08-06T06:33:16;1.10;;;1.00;;
67065;SDS011;53978;43.846;25.952;2023-08-06T06:35:42;3.22;;;1.15;;
67065;SDS011;53978;43.846;25.952;2023-08-06T06:38:07;1.65;;;0.93;;
67065;SDS011;53978;43.846;25.952;2023-08-06T06:40:33;2.75;;;0.80;;
67065;SDS011;53978;43.846;25.952;2023-08-06T06:42:58;1.50;;;0.95;;
67065;SDS011;53978;43.846;25.952;2023-08-06T06:45:24;6.57;;;1.05;;
67065;SDS011;53978;43.846;25.952;2023-08-06T06:47:49;1.73;;;1.10;;
67065;SDS011;53978;43.846;25.952;2023-08-06T06:50:14;1.23;;;0.98;;
67065;SDS011;53978;43.846;25.952;2023-08-06T06:52:41;1.85;;;1.08;;
67065;SDS011;53978;43.846;25.952;2023-08-06T06:55:06;4.50;;;1.13;;
67065;SDS011;53978;43.846;25.952;2023-08-06T06:57:32;1.85;;;1.20;;
67065;SDS011;53978;43.846;25.952;2023-08-06T06:59:57;3.97;;;1.10;;
67065;SDS011;53978;43.846;25.952;2023-08-06T07:02:22;1.27;;;1.10;;
67065;SDS011;53978;43.846;25.952;2023-08-06T07:04:49;1.15;;;1.05;;
67065;SDS011;53978;43.846;25.952;2023-08-06T07:07:15;2.20;;;1.05;;
67065;SDS011;53978;43.846;25.952;2023-08-06T07:09:40;4.40;;;1.27;;
67065;SDS011;53978;43.846;25.952;2023-08-06T07:12:05;1.65;;;1.50;;
67065;SDS011;53978;43.846;25.952;2023-08-06T07:14:31;1.25;;;1.15;;
67065;SDS011;53978;43.846;25.952;2023-08-06T07:16:56;1.92;;;1.30;;
67065;SDS011;53978;43.846;25.952;2023-08-06T07:19:23;1.38;;;1.10;;
67065;SDS011;53978;43.846;25.952;2023-08-06T07:21:48;3.72;;;1.25;;
67065;SDS011;53978;43.846;25.952;2023-08-06T07:24:14;1.13;;;1.05;;
67065;SDS011;53978;43.846;25.952;2023-08-06T07:26:39;1.58;;;1.30;;
67065;SDS011;53978;43.846;25.952;2023-08-06T07:29:04;1.80;;;1.20;;
67065;SDS011;53978;43.846;25.952;2023-08-06T07:31:30;3.22;;;1.30;;
67065;SDS011;53978;43.846;25.952;2023-08-06T07:33:55;1.65;;;1.25;;
67065;SDS011;53978;43.846;25.952;2023-08-06T07:36:21;1.58;;;1.40;;
67065;SDS011;53978;43.846;25.952;2023-08-06T07:38:46;2.40;;;1.27;;
67065;SDS011;53978;43.846;25.952;2023-08-06T07:41:13;2.25;;;1.17;;
67065;SDS011;53978;43.846;25.952;2023-08-06T07:43:39;1.73;;;1.17;;
67065;SDS011;53978;43.846;25.952;2023-08-06T07:46:04;1.20;;;1.08;;
67065;SDS011;53978;43.846;25.952;2023-08-06T07:48:30;4.47;;;1.30;;
67065;SDS011;53978;43.846;25.952;2023-08-06T07:50:56;1.58;;;1.30;;
67065;SDS011;53978;43.846;25.952;2023-08-06T07:53:22;4.47;;;1.30;;
67065;SDS011;53978;43.846;25.952;2023-08-06T07:55:51;1.85;;;1.20;;
67065;SDS011;53978;43.846;25.952;2023-08-06T07:58:18;3.17;;;1.40;;
67065;SDS011;53978;43.846;25.952;2023-08-06T08:00:44;2.95;;;1.27;;
67065;SDS011;53978;43.846;25.952;2023-08-06T08:03:11;1.30;;;1.20;;
67065;SDS011;53978;43.846;25.952;2023-08-06T08:05:38;1.42;;;1.10;;
67065;SDS011;53978;43.846;25.952;2023-08-06T08:08:03;7.10;;;1.30;;
67065;SDS011;53978;43.846;25.952;2023-08-06T08:10:29;2.67;;;1.30;;
67065;SDS011;53978;43.846;25.952;2023-08-06T08:12:56;3.28;;;1.40;;
67065;SDS011;53978;43.846;25.952;2023-08-06T08:15:21;7.63;;;1.40;;
67065;SDS011;53978;43.846;25.952;2023-08-06T08:17:47;7.75;;;1.50;;
67065;SDS011;53978;43.846;25.952;2023-08-06T08:20:13;3.22;;;1.50;;
67065;SDS011;53978;43.846;25.952;2023-08-06T08:22:38;1.48;;;1.30;;
67065;SDS011;53978;43.846;25.952;2023-08-06T08:25:04;15.02;;;1.30;;
67065;SDS011;53978;43.846;25.952;2023-08-06T08:27:30;2.80;;;1.85;;
67065;SDS011;53978;43.846;25.952;2023-08-06T08:29:55;2.50;;;1.52;;
67065;SDS011;53978;43.846;25.952;2023-08-06T08:32:21;3.65;;;1.52;;
67065;SDS011;53978;43.846;25.952;2023-08-06T08:34:46;1.63;;;1.23;;
67065;SDS011;53978;43.846;25.952;2023-08-06T08:37:12;1.98;;;1.35;;
67065;SDS011;53978;43.846;25.952;2023-08-06T08:39:38;1.45;;;1.20;;
67065;SDS011;53978;43.846;25.952;2023-08-06T08:42:04;1.70;;;1.45;;
67065;SDS011;53978;43.846;25.952;2023-08-06T08:44:32;1.15;;;1.10;;
67065;SDS011;53978;43.846;25.952;2023-08-06T08:46:59;4.32;;;1.48;;
67065;SDS011;53978;43.846;25.952;2023-08-06T08:49:25;3.05;;;1.20;;
67065;SDS011;53978;43.846;25.952;2023-08-06T08:51:52;3.78;;;1.38;;
67065;SDS011;53978;43.846;25.952;2023-08-06T08:54:18;1.48;;;1.27;;
67065;SDS011;53978;43.846;25.952;2023-08-06T08:56:45;4.43;;;1.40;;
67065;SDS011;53978;43.846;25.952;2023-08-06T08:59:10;4.78;;;1.77;;
67065;SDS011;53978;43.846;25.952;2023-08-06T09:01:36;7.07;;;1.90;;
67065;SDS011;53978;43.846;25.952;2023-08-06T09:04:02;6.47;;;2.10;;
67065;SDS011;53978;43.846;25.952;2023-08-06T09:06:28;4.72;;;2.38;;
67065;SDS011;53978;43.846;25.952;2023-08-06T09:08:56;8.65;;;2.05;;
67065;SDS011;53978;43.846;25.952;2023-08-06T09:11:36;4.25;;;1.90;;
67065;SDS011;53978;43.846;25.952;2023-08-06T09:14:09;6.53;;;1.85;;
67065;SDS011;53978;43.846;25.952;2023-08-06T09:16:35;3.20;;;1.95;;
67065;SDS011;53978;43.846;25.952;2023-08-06T09:19:10;1.85;;;1.75;;
67065;SDS011;53978;43.846;25.952;2023-08-06T09:21:38;3.15;;;2.33;;
67065;SDS011;53978;43.846;25.952;2023-08-06T09:24:07;6.00;;;2.10;;
67065;SDS011;53978;43.846;25.952;2023-08-06T09:26:43;3.53;;;2.30;;
67065;SDS011;53978;43.846;25.952;2023-08-06T09:29:09;2.50;;;2.30;;
67065;SDS011;53978;43.846;25.952;2023-08-06T09:31:46;3.17;;;2.70;;
67065;SDS011;53978;43.846;25.952;2023-08-06T09:34:16;4.60;;;3.10;;
67065;SDS011;53978;43.846;25.952;2023-08-06T09:36:43;3.83;;;3.20;;
67065;SDS011;53978;43.846;25.952;2023-08-06T09:39:16;5.15;;;3.20;;
67065;SDS011;53978;43.846;25.952;2023-08-06T09:41:45;11.15;;;3.20;;
67065;SDS011;53978;43.846;25.952;2023-08-06T09:44:16;3.20;;;2.88;;
67065;SDS011;53978;43.846;25.952;2023-08-06T09:46:50;3.78;;;3.00;;
67065;SDS011;53978;43.846;25.952;2023-08-06T09:49:20;8.23;;;3.33;;
67065;SDS011;53978;43.846;25.952;2023-08-06T09:52:09;5.20;;;3.28;;
67065;SDS011;53978;43.846;25.952;2023-08-06T09:54:36;4.88;;;3.15;;
67065;SDS011;53978;43.846;25.952;2023-08-06T09:57:02;6.10;;;3.05;;
67065;SDS011;53978;43.846;25.952;2023-08-06T09:59:28;4.80;;;3.50;;
67065;SDS011;53978;43.846;25.952;2023-08-06T10:01:53;5.60;;;3.15;;
67065;SDS011;53978;43.846;25.952;2023-08-06T10:04:20;6.60;;;3.20;;
67065;SDS011;53978;43.846;25.952;2023-08-06T10:06:46;3.78;;;3.30;;
67065;SDS011;53978;43.846;25.952;2023-08-06T10:09:12;7.45;;;3.83;;
67065;SDS011;53978;43.846;25.952;2023-08-06T10:11:38;4.45;;;4.00;;
67065;SDS011;53978;43.846;25.952;2023-08-06T10:14:08;5.97;;;3.22;;
67065;SDS011;53978;43.846;25.952;2023-08-06T10:16:37;7.95;;;3.08;;
67065;SDS011;53978;43.846;25.952;2023-08-06T10:19:04;3.63;;;2.67;;
67065;SDS011;53978;43.846;25.952;2023-08-06T10:21:30;5.72;;;2.90;;
67065;SDS011;53978;43.846;25.952;2023-08-06T10:23:57;5.50;;;2.38;;
67065;SDS011;53978;43.846;25.952;2023-08-06T10:26:29;3.47;;;2.40;;
67065;SDS011;53978;43.846;25.952;2023-08-06T10:28:54;4.18;;;2.70;;
67065;SDS011;53978;43.846;25.952;2023-08-06T10:31:35;7.38;;;2.80;;
67065;SDS011;53978;43.846;25.952;2023-08-06T10:34:24;9.93;;;2.70;;
67065;SDS011;53978;43.846;25.952;2023-08-06T10:36:49;5.18;;;2.50;;
67065;SDS011;53978;43.846;25.952;2023-08-06T10:39:15;3.35;;;2.80;;
67065;SDS011;53978;43.846;25.952;2023-08-06T10:41:41;8.18;;;2.72;;
67065;SDS011;53978;43.846;25.952;2023-08-06T10:44:09;4.38;;;2.28;;
67065;SDS011;53978;43.846;25.952;2023-08-06T10:46:35;4.90;;;2.40;;
67065;SDS011;53978;43.846;25.952;2023-08-06T10:49:01;4.65;;;2.45;;
67065;SDS011;53978;43.846;25.952;2023-08-06T10:51:26;4.38;;;2.90;;
67065;SDS011;53978;43.846;25.952;2023-08-06T10:53:52;2.88;;;2.40;;
67065;SDS011;53978;43.846;25.952;2023-08-06T10:56:19;8.00;;;2.65;;
67065;SDS011;53978;43.846;25.952;2023-08-06T10:58:49;4.13;;;2.95;;
67065;SDS011;53978;43.846;25.952;2023-08-06T11:01:16;6.70;;;2.78;;
67065;SDS011;53978;43.846;25.952;2023-08-06T11:03:42;10.45;;;3.45;;
67065;SDS011;53978;43.846;25.952;2023-08-06T11:06:09;12.13;;;3.05;;
67065;SDS011;53978;43.846;25.952;2023-08-06T11:08:36;12.27;;;2.70;;
67065;SDS011;53978;43.846;25.952;2023-08-06T11:11:12;5.50;;;2.88;;
67065;SDS011;53978;43.846;25.952;2023-08-06T11:13:39;7.13;;;2.90;;
67065;SDS011;53978;43.846;25.952;2023-08-06T11:16:05;5.32;;;2.70;;
67065;SDS011;53978;43.846;25.952;2023-08-06T11:18:31;11.43;;;2.97;;
67065;SDS011;53978;43.846;25.952;2023-08-06T11:20:59;6.00;;;2.70;;
67065;SDS011;53978;43.846;25.952;2023-08-06T11:23:28;4.43;;;2.55;;
67065;SDS011;53978;43.846;25.952;2023-08-06T11:25:54;8.30;;;2.70;;
67065;SDS011;53978;43.846;25.952;2023-08-06T11:28:23;4.72;;;2.67;;
67065;SDS011;53978;43.846;25.952;2023-08-06T11:30:49;2.75;;;2.55;;
67065;SDS011;53978;43.846;25.952;2023-08-06T11:33:19;13.45;;;3.47;;
67065;SDS011;53978;43.846;25.952;2023-08-06T11:35:50;5.35;;;2.60;;
67065;SDS011;53978;43.846;25.952;2023-08-06T11:38:16;3.25;;;2.83;;
67065;SDS011;53978;43.846;25.952;2023-08-06T11:40:43;4.43;;;3.08;;
67065;SDS011;53978;43.846;25.952;2023-08-06T11:43:14;6.65;;;3.00;;
67065;SDS011;53978;43.846;25.952;2023-08-06T11:45:40;3.65;;;2.90;;
67065;SDS011;53978;43.846;25.952;2023-08-06T11:48:06;4.07;;;3.00;;
67065;SDS011;53978;43.846;25.952;2023-08-06T11:50:35;3.42;;;2.97;;
67065;SDS011;53978;43.846;25.952;2023-08-06T11:53:01;5.18;;;3.10;;
67065;SDS011;53978;43.846;25.952;2023-08-06T11:55:28;4.45;;;3.25;;
67065;SDS011;53978;43.846;25.952;2023-08-06T11:57:54;8.02;;;3.67;;
67065;SDS011;53978;43.846;25.952;2023-08-06T12:00:20;6.85;;;3.55;;
67065;SDS011;53978;43.846;25.952;2023-08-06T12:02:48;3.90;;;3.33;;
67065;SDS011;53978;43.846;25.952;2023-08-06T12:05:15;10.52;;;3.55;;
67065;SDS011;53978;43.846;25.952;2023-08-06T12:07:45;3.72;;;3.15;;
67065;SDS011;53978;43.846;25.952;2023-08-06T12:10:12;12.23;;;3.65;;
67065;SDS011;53978;43.846;25.952;2023-08-06T12:12:38;11.55;;;3.40;;
67065;SDS011;53978;43.846;25.952;2023-08-06T12:15:04;3.25;;;2.95;;
67065;SDS011;53978;43.846;25.952;2023-08-06T12:17:31;3.20;;;2.70;;
67065;SDS011;53978;43.846;25.952;2023-08-06T12:19:56;2.85;;;2.65;;
67065;SDS011;53978;43.846;25.952;2023-08-06T12:22:22;5.03;;;3.10;;
67065;SDS011;53978;43.846;25.952;2023-08-06T12:24:47;6.43;;;3.00;;
67065;SDS011;53978;43.846;25.952;2023-08-06T12:27:13;4.07;;;2.58;;
67065;SDS011;53978;43.846;25.952;2023-08-06T12:29:42;3.00;;;2.55;;
67065;SDS011;53978;43.846;25.952;2023-08-06T12:32:12;5.63;;;2.67;;
67065;SDS011;53978;43.846;25.952;2023-08-06T12:34:38;4.05;;;2.42;;
67065;SDS011;53978;43.846;25.952;2023-08-06T12:37:04;6.20;;;2.30;;
67065;SDS011;53978;43.846;25.952;2023-08-06T12:39:30;2.60;;;2.38;;
67065;SDS011;53978;43.846;25.952;2023-08-06T12:41:56;2.72;;;2.50;;
67065;SDS011;53978;43.846;25.952;2023-08-06T12:44:23;2.80;;;2.60;;
67065;SDS011;53978;43.846;25.952;2023-08-06T12:46:49;2.95;;;2.40;;
67065;SDS011;53978;43.846;25.952;2023-08-06T12:49:15;3.03;;;2.70;;
67065;SDS011;53978;43.846;25.952;2023-08-06T12:51:40;2.55;;;2.35;;
67065;SDS011;53978;43.846;25.952;2023-08-06T12:54:06;4.53;;;2.30;;
67065;SDS011;53978;43.846;25.952;2023-08-06T12:56:31;2.67;;;2.47;;
67065;SDS011;53978;43.846;25.952;2023-08-06T12:58:56;3.50;;;2.40;;
67065;SDS011;53978;43.846;25.952;2023-08-06T13:01:22;2.53;;;1.92;;
67065;SDS011;53978;43.846;25.952;2023-08-06T13:03:47;2.53;;;2.28;;
67065;SDS011;53978;43.846;25.952;2023-08-06T13:06:13;2.55;;;2.35;;
67065;SDS011;53978;43.846;25.952;2023-08-06T13:08:38;2.40;;;2.17;;
67065;SDS011;53978;43.846;25.952;2023-08-06T13:11:04;2.88;;;2.20;;
67065;SDS011;53978;43.846;25.952;2023-08-06T13:13:30;3.47;;;2.40;;
67065;SDS011;53978;43.846;25.952;2023-08-06T13:15:55;3.10;;;2.55;;
67065;SDS011;53978;43.846;25.952;2023-08-06T13:18:20;3.33;;;2.10;;
67065;SDS011;53978;43.846;25.952;2023-08-06T13:20:46;2.30;;;2.10;;
67065;SDS011;53978;43.846;25.952;2023-08-06T13:23:14;2.72;;;2.10;;
67065;SDS011;53978;43.846;25.952;2023-08-06T13:25:41;3.08;;;2.15;;
67065;SDS011;53978;43.846;25.952;2023-08-06T13:28:07;4.30;;;2.08;;
67065;SDS011;53978;43.846;25.952;2023-08-06T13:30:33;6.15;;;2.20;;
67065;SDS011;53978;43.846;25.952;2023-08-06T13:33:00;2.30;;;2.10;;
67065;SDS011;53978;43.846;25.952;2023-08-06T13:35:26;5.68;;;2.30;;
67065;SDS011;53978;43.846;25.952;2023-08-06T13:37:51;1.90;;;1.80;;
67065;SDS011;53978;43.846;25.952;2023-08-06T13:40:17;6.25;;;1.95;;
67065;SDS011;53978;43.846;25.952;2023-08-06T13:42:43;4.85;;;2.25;;
67065;SDS011;53978;43.846;25.952;2023-08-06T13:45:08;3.17;;;1.92;;
67065;SDS011;53978;43.846;25.952;2023-08-06T13:47:34;2.17;;;1.98;;
67065;SDS011;53978;43.846;25.952;2023-08-06T13:50:00;2.25;;;2.08;;
67065;SDS011;53978;43.846;25.952;2023-08-06T13:52:25;2.30;;;2.05;;
67065;SDS011;53978;43.846;25.952;2023-08-06T13:54:51;2.88;;;1.90;;
67065;SDS011;53978;43.846;25.952;2023-08-06T13:57:17;1.80;;;1.70;;
67065;SDS011;53978;43.846;25.952;2023-08-06T13:59:42;2.50;;;1.75;;
67065;SDS011;53978;43.846;25.952;2023-08-06T14:02:09;2.17;;;1.80;;
67065;SDS011;53978;43.846;25.952;2023-08-06T14:04:34;2.00;;;1.85;;
67065;SDS011;53978;43.846;25.952;2023-08-06T14:07:00;2.20;;;2.00;;
67065;SDS011;53978;43.846;25.952;2023-08-06T14:09:25;5.53;;;2.20;;
67065;SDS011;53978;43.846;25.952;2023-08-06T14:11:50;2.40;;;2.20;;
67065;SDS011;53978;43.846;25.952;2023-08-06T14:14:16;4.60;;;2.08;;
67065;SDS011;53978;43.846;25.952;2023-08-06T14:16:41;3.30;;;2.03;;
67065;SDS011;53978;43.846;25.952;2023-08-06T14:19:06;2.92;;;1.90;;
67065;SDS011;53978;43.846;25.952;2023-08-06T14:21:32;3.42;;;1.75;;
67065;SDS011;53978;43.846;25.952;2023-08-06T14:23:57;4.22;;;1.80;;
67065;SDS011;53978;43.846;25.952;2023-08-06T14:26:23;1.75;;;1.65;;
67065;SDS011;53978;43.846;25.952;2023-08-06T14:28:48;6.50;;;1.83;;
67065;SDS011;53978;43.846;25.952;2023-08-06T14:31:14;1.80;;;1.65;;